Time;durP1;ratioP1;P1;durP2;ratioP2;P2;SDS_P1;SDS_P2;PMS_P1;PMS_P2;Temp;Humidity;BMP_temperature;BMP_pressure;BME280_temperature;BME280_humidity;BME280_pressure;Samples;Min_cycle;Max_cycle;Signal;HPM_P1;HPM_P2
2023/01/30 00:00:31;;;;;;;;;;;8.20;99.90;;;;;;5019036;28;20577;-72
2023/01/30 00:02:56;;;;;;;;;;;8.20;99.90;;;;;;5009816;28;19920;-71
2023/01/30 00:05:22;;;;;;;;;;;8.20;99.90;;;;;;5004807;28;20531;-69
2023/01/30 00:07:47;;;;;;;;;;;8.20;99.90;;;;;;5004675;28;19928;-72
2023/01/30 00:10:13;;;;;;;;;;;8.20;99.90;;;;;;5004573;28;20409;-71
2023/01/30 00:12:38;;;;;;;;;;;8.20;99.90;;;;;;5015410;28;19917;-69
2023/01/30 00:15:04;;;;;;;;;;;8.20;99.90;;;;;;5026914;28;20333;-71
2023/01/30 00:17:30;;;;;;;;;;;8.30;99.90;;;;;;5008639;28;19920;-71
2023/01/30 00:19:55;;;;;;;;;;;8.30;99.90;;;;;;5012852;28;19947;-71
2023/01/30 00:22:21;;;;;;;;;;;8.30;99.90;;;;;;5006167;28;20262;-71
2023/01/30 00:24:46;;;;;;;;;;;8.40;99.90;;;;;;5004521;28;19921;-71
2023/01/30 00:27:11;;;;;;;;;;;8.40;99.90;;;;;;5007653;28;19913;-72
2023/01/30 00:29:37;;;;;;;;;;;8.50;99.90;;;;;;5006312;28;19913;-70
2023/01/30 00:32:02;;;;;;;;;;;8.50;99.90;;;;;;5006390;28;19976;-71
2023/01/30 00:34:28;;;;;;;;;;;8.60;99.90;;;;;;5003467;28;20396;-70
2023/01/30 00:36:53;;;;;;;;;;;8.60;99.90;;;;;;5013385;28;19913;-71
2023/01/30 00:39:19;;;;;;;;;;;8.60;99.90;;;;;;5013700;28;19920;-70
2023/01/30 00:47:13;;;;;;;;;;;8.70;99.90;;;;;;5027344;28;20469;-69
2023/01/30 00:49:38;;;;;;;;;;;8.70;99.90;;;;;;5020783;28;19913;-70
2023/01/30 00:52:04;;;;;;;;;;;8.70;99.90;;;;;;5021601;28;19920;-71
2023/01/30 00:54:30;;;;;;;;;;;8.70;99.90;;;;;;5011362;28;19914;-70
2023/01/30 00:56:55;;;;;;;;;;;8.70;99.90;;;;;;5017817;28;20421;-72
2023/01/30 00:59:21;;;;;;;;;;;8.70;99.90;;;;;;5015874;28;19913;-71
2023/01/30 01:01:46;;;;;;;;;;;8.70;99.90;;;;;;5007398;28;19917;-71
2023/01/30 01:04:12;;;;;;;;;;;8.70;99.90;;;;;;5009382;28;19953;-72
2023/01/30 01:06:38;;;;;;;;;;;8.70;99.90;;;;;;5015514;28;20050;-72
2023/01/30 01:09:04;;;;;;;;;;;8.60;99.90;;;;;;5007018;28;19921;-71
2023/01/30 01:11:29;;;;;;;;;;;8.60;99.90;;;;;;5015521;28;19909;-71
2023/01/30 01:13:55;;;;;;;;;;;8.60;99.90;;;;;;5007028;28;20160;-71
2023/01/30 01:16:21;;;;;;;;;;;8.60;99.90;;;;;;5011517;28;19914;-71
2023/01/30 01:18:47;;;;;;;;;;;8.60;99.90;;;;;;5018309;28;19948;-71
2023/01/30 01:21:12;;;;;;;;;;;8.60;99.90;;;;;;5010866;28;20003;-71
2023/01/30 01:23:38;;;;;;;;;;;8.60;99.90;;;;;;5007284;28;19909;-70
2023/01/30 01:26:03;;;;;;;;;;;8.50;99.90;;;;;;5010375;28;20019;-71
2023/01/30 01:28:29;;;;;;;;;;;8.50;99.90;;;;;;4992196;28;19929;-71
2023/01/30 01:30:54;;;;;;;;;;;8.50;99.90;;;;;;5002634;28;20267;-72
2023/01/30 01:33:20;;;;;;;;;;;8.50;99.90;;;;;;5005912;28;19919;-70
2023/01/30 01:35:48;;;;;;;;;;;8.50;99.90;;;;;;5008368;28;20431;-71
2023/01/30 01:38:14;;;;;;;;;;;8.50;99.90;;;;;;4999189;28;20041;-71
2023/01/30 01:41:03;;;;;;;;;;;8.40;99.90;;;;;;5029042;28;19974;-71
2023/01/30 01:43:33;;;;;;;;;;;8.40;99.90;;;;;;5008069;28;19913;-71
2023/01/30 01:46:19;;;;;;;;;;;8.40;99.90;;;;;;5007413;28;19917;-71
2023/01/30 01:48:47;;;;;;;;;;;8.40;99.90;;;;;;5008382;28;20575;-71
2023/01/30 01:51:30;;;;;;;;;;;8.50;99.90;;;;;;5008138;28;19920;-70
2023/01/30 01:53:57;;;;;;;;;;;8.40;99.90;;;;;;5003914;28;19916;-71
2023/01/30 01:56:23;;;;;;;;;;;8.40;99.90;;;;;;5014080;28;19971;-71
2023/01/30 01:58:51;;;;;;;;;;;8.40;99.90;;;;;;5005341;28;20605;-71
2023/01/30 02:01:17;;;;;;;;;;;8.40;99.90;;;;;;5015285;28;19921;-70
2023/01/30 02:03:44;;;;;;;;;;;8.30;99.90;;;;;;5017969;28;19917;-72
2023/01/30 02:06:11;;;;;;;;;;;8.30;99.90;;;;;;5016656;28;19909;-71
2023/01/30 02:08:38;;;;;;;;;;;8.30;99.90;;;;;;5022013;28;20280;-72
2023/01/30 02:11:04;;;;;;;;;;;8.30;99.90;;;;;;5015634;28;19921;-70
2023/01/30 02:13:30;;;;;;;;;;;8.30;99.90;;;;;;5014963;28;20419;-72
2023/01/30 02:15:59;;;;;;;;;;;8.30;99.90;;;;;;5012552;28;19944;-70
2023/01/30 02:18:25;;;;;;;;;;;8.30;99.90;;;;;;5007652;28;19927;-71
2023/01/30 02:21:02;;;;;;;;;;;8.30;99.90;;;;;;5009631;28;19941;-71
2023/01/30 02:23:46;;;;;;;;;;;8.30;99.90;;;;;;5013011;28;19920;-70
2023/01/30 02:26:11;;;;;;;;;;;8.30;99.90;;;;;;5010164;28;19914;-71
2023/01/30 02:28:46;;;;;;;;;;;8.30;99.90;;;;;;5008922;28;20027;-75
2023/01/30 02:31:21;;;;;;;;;;;8.30;99.90;;;;;;5008495;28;19920;-75
2023/01/30 02:33:52;;;;;;;;;;;8.30;99.90;;;;;;5007831;28;19949;-70
2023/01/30 02:36:36;;;;;;;;;;;8.30;99.90;;;;;;5018650;28;19909;-71
2023/01/30 02:39:18;;;;;;;;;;;8.30;99.90;;;;;;5017085;28;20290;-71
2023/01/30 02:41:57;;;;;;;;;;;8.30;99.90;;;;;;5007523;28;20275;-71
2023/01/30 02:44:23;;;;;;;;;;;8.30;99.90;;;;;;5009600;28;19920;-71
2023/01/30 02:46:48;;;;;;;;;;;8.40;99.90;;;;;;5011287;28;19921;-70
2023/01/30 02:49:20;;;;;;;;;;;8.40;99.90;;;;;;5002993;28;19976;-71
2023/01/30 02:51:46;;;;;;;;;;;8.40;99.90;;;;;;5008578;28;19914;-71
2023/01/30 02:54:13;;;;;;;;;;;8.40;99.90;;;;;;5009400;28;19914;-70
2023/01/30 02:56:51;;;;;;;;;;;8.50;99.90;;;;;;5005494;28;19918;-72
2023/01/30 02:59:20;;;;;;;;;;;8.40;99.90;;;;;;5004641;28;19916;-73
2023/01/30 03:02:04;;;;;;;;;;;8.50;99.90;;;;;;5011203;28;20023;-72
2023/01/30 03:04:34;;;;;;;;;;;8.50;99.90;;;;;;5014698;28;19914;-70
2023/01/30 03:07:18;;;;;;;;;;;8.60;99.90;;;;;;5015788;28;19957;-71
2023/01/30 03:09:48;;;;;;;;;;;8.60;99.90;;;;;;5012575;28;20873;-72
2023/01/30 03:12:25;;;;;;;;;;;8.50;99.90;;;;;;5010001;28;20055;-72
2023/01/30 03:15:04;;;;;;;;;;;8.60;99.90;;;;;;5007422;28;20410;-71
2023/01/30 03:17:31;;;;;;;;;;;8.60;99.90;;;;;;5001595;28;19914;-70
2023/01/30 03:19:57;;;;;;;;;;;8.60;99.90;;;;;;5006422;28;19918;-69
2023/01/30 03:22:22;;;;;;;;;;;8.60;99.90;;;;;;5005988;28;20083;-70
2023/01/30 03:24:49;;;;;;;;;;;8.60;99.90;;;;;;5009964;28;20538;-71
2023/01/30 03:27:15;;;;;;;;;;;8.50;99.90;;;;;;5029021;28;19932;-71
2023/01/30 03:29:40;;;;;;;;;;;8.60;99.90;;;;;;5017560;28;20406;-70
2023/01/30 03:32:06;;;;;;;;;;;8.60;99.90;;;;;;5005114;28;20121;-70
2023/01/30 03:34:31;;;;;;;;;;;8.60;99.90;;;;;;5004769;28;19953;-71
2023/01/30 03:36:57;;;;;;;;;;;8.70;99.90;;;;;;4994382;28;19922;-72
2023/01/30 03:39:23;;;;;;;;;;;8.70;99.90;;;;;;5003111;28;19920;-72
2023/01/30 03:41:49;;;;;;;;;;;8.70;99.90;;;;;;5004978;28;20550;-72
2023/01/30 03:44:15;;;;;;;;;;;8.70;99.90;;;;;;4998071;28;19914;-71
2023/01/30 03:46:40;;;;;;;;;;;8.70;99.90;;;;;;5021374;28;20317;-71
2023/01/30 03:49:06;;;;;;;;;;;8.80;99.90;;;;;;5007052;28;19920;-71
2023/01/30 03:51:31;;;;;;;;;;;8.80;99.90;;;;;;5005303;28;20452;-72
2023/01/30 03:53:56;;;;;;;;;;;8.80;99.90;;;;;;5003140;28;19917;-71
2023/01/30 03:56:22;;;;;;;;;;;8.90;99.90;;;;;;5008059;28;19996;-71
2023/01/30 03:58:47;;;;;;;;;;;8.90;99.90;;;;;;4997342;28;20383;-72
2023/01/30 04:01:13;;;;;;;;;;;8.90;99.90;;;;;;5006640;28;19913;-71
2023/01/30 04:03:38;;;;;;;;;;;8.90;99.90;;;;;;5025162;28;19918;-72
2023/01/30 04:06:04;;;;;;;;;;;8.90;99.90;;;;;;5023368;28;19938;-71
2023/01/30 04:08:29;;;;;;;;;;;8.90;99.90;;;;;;5023403;28;20012;-71
2023/01/30 04:10:55;;;;;;;;;;;8.90;99.90;;;;;;5018497;28;19916;-71
2023/01/30 04:13:20;;;;;;;;;;;8.90;99.90;;;;;;5021048;28;19913;-72
2023/01/30 04:15:46;;;;;;;;;;;8.90;99.90;;;;;;5008193;28;19913;-71
2023/01/30 04:18:11;;;;;;;;;;;8.90;99.90;;;;;;5013048;28;19920;-71
2023/01/30 04:20:37;;;;;;;;;;;8.90;99.90;;;;;;5006200;28;19925;-71
2023/01/30 04:23:03;;;;;;;;;;;8.90;99.90;;;;;;5004952;28;20533;-73
2023/01/30 04:25:28;;;;;;;;;;;9.00;99.90;;;;;;5013758;28;20244;-73
2023/01/30 04:27:54;;;;;;;;;;;9.00;99.90;;;;;;5007027;28;19920;-73
2023/01/30 04:30:19;;;;;;;;;;;9.00;99.90;;;;;;5001844;28;19945;-73
2023/01/30 04:32:45;;;;;;;;;;;9.00;99.90;;;;;;5012546;28;19909;-71
2023/01/30 04:35:10;;;;;;;;;;;9.00;99.90;;;;;;5005364;28;19914;-70
2023/01/30 04:37:36;;;;;;;;;;;9.00;99.90;;;;;;5006816;28;19909;-72
2023/01/30 04:40:01;;;;;;;;;;;9.00;99.90;;;;;;5004660;28;19920;-71
2023/01/30 04:42:27;;;;;;;;;;;8.90;99.90;;;;;;4997149;28;19921;-71
2023/01/30 04:44:52;;;;;;;;;;;8.90;99.90;;;;;;5013173;28;19917;-72
2023/01/30 04:47:18;;;;;;;;;;;8.90;99.90;;;;;;4999966;28;19976;-71
2023/01/30 04:49:43;;;;;;;;;;;8.80;99.90;;;;;;5003580;28;19918;-71
2023/01/30 04:52:09;;;;;;;;;;;8.80;99.90;;;;;;5008447;28;20521;-72
2023/01/30 04:54:34;;;;;;;;;;;8.70;99.90;;;;;;5006194;28;19917;-71
2023/01/30 04:57:00;;;;;;;;;;;8.70;99.90;;;;;;5009648;28;20426;-71
2023/01/30 04:59:25;;;;;;;;;;;8.60;99.90;;;;;;5011068;28;19949;-72
2023/01/30 05:01:50;;;;;;;;;;;8.50;99.90;;;;;;4995634;28;20597;-72
2023/01/30 05:04:16;;;;;;;;;;;8.60;99.90;;;;;;5003442;28;19976;-70
2023/01/30 05:06:41;;;;;;;;;;;8.50;99.90;;;;;;5012073;28;20297;-71
2023/01/30 05:09:07;;;;;;;;;;;8.50;99.90;;;;;;5000336;28;19925;-71
2023/01/30 05:11:33;;;;;;;;;;;8.40;99.90;;;;;;5017810;28;19917;-71
2023/01/30 05:13:58;;;;;;;;;;;8.40;99.90;;;;;;5010279;28;19917;-71
2023/01/30 05:16:24;;;;;;;;;;;8.30;99.90;;;;;;5006211;28;20009;-71
2023/01/30 05:18:49;;;;;;;;;;;8.30;99.90;;;;;;5005451;28;20011;-72
2023/01/30 05:21:19;;;;;;;;;;;8.30;99.90;;;;;;5007937;28;20445;-74
2023/01/30 05:23:45;;;;;;;;;;;8.30;99.90;;;;;;5001116;28;19914;-71
2023/01/30 05:26:11;;;;;;;;;;;8.30;99.90;;;;;;5003527;28;19913;-71
2023/01/30 05:28:36;;;;;;;;;;;8.30;99.90;;;;;;5010643;28;20484;-72
2023/01/30 05:31:03;;;;;;;;;;;8.40;99.90;;;;;;5014795;28;19914;-77
2023/01/30 05:33:29;;;;;;;;;;;8.30;99.90;;;;;;5005977;28;19945;-77
2023/01/30 05:35:54;;;;;;;;;;;8.30;99.90;;;;;;5014879;28;19964;-78
2023/01/30 05:38:21;;;;;;;;;;;8.30;99.90;;;;;;5003588;28;20523;-75
2023/01/30 05:40:46;;;;;;;;;;;8.30;99.90;;;;;;5012479;28;19921;-74
2023/01/30 05:43:12;;;;;;;;;;;8.30;99.90;;;;;;5007462;28;20962;-74
2023/01/30 05:45:38;;;;;;;;;;;8.20;99.90;;;;;;5011804;28;19991;-74
2023/01/30 05:48:03;;;;;;;;;;;8.20;99.90;;;;;;5004299;28;19918;-74
2023/01/30 05:50:30;;;;;;;;;;;8.10;99.90;;;;;;5008930;28;20016;-74
2023/01/30 05:52:55;;;;;;;;;;;8.10;99.90;;;;;;5009804;28;20057;-73
2023/01/30 05:55:20;;;;;;;;;;;8.00;99.90;;;;;;5002154;28;19957;-74
2023/01/30 05:57:46;;;;;;;;;;;8.00;99.90;;;;;;5010530;28;19917;-74
2023/01/30 06:00:12;;;;;;;;;;;7.90;99.90;;;;;;5006040;28;19920;-74
2023/01/30 06:02:37;;;;;;;;;;;7.90;99.90;;;;;;5000857;28;19995;-73
2023/01/30 06:05:03;;;;;;;;;;;7.80;99.90;;;;;;5004483;28;20004;-72
2023/01/30 06:07:28;;;;;;;;;;;7.80;99.90;;;;;;5011805;28;19917;-73
2023/01/30 06:09:54;;;;;;;;;;;7.70;99.90;;;;;;5014247;28;19964;-75
2023/01/30 06:12:20;;;;;;;;;;;7.70;99.90;;;;;;5008927;28;20012;-73
2023/01/30 06:14:45;;;;;;;;;;;7.70;99.90;;;;;;5012110;28;19957;-73
2023/01/30 06:17:10;;;;;;;;;;;7.80;99.90;;;;;;5009133;28;19909;-73
2023/01/30 06:19:36;;;;;;;;;;;7.80;99.90;;;;;;5003074;28;19913;-72
2023/01/30 06:22:02;;;;;;;;;;;7.70;99.90;;;;;;4990616;28;20441;-74
2023/01/30 06:24:27;;;;;;;;;;;7.70;99.90;;;;;;4988728;28;20047;-73
2023/01/30 06:26:53;;;;;;;;;;;7.70;99.90;;;;;;4994736;28;19913;-73
2023/01/30 06:29:18;;;;;;;;;;;7.60;99.90;;;;;;5006507;28;20426;-74
2023/01/30 06:31:45;;;;;;;;;;;7.50;99.90;;;;;;5000193;28;19920;-78
2023/01/30 06:34:11;;;;;;;;;;;7.50;99.90;;;;;;5000935;28;19914;-74
2023/01/30 06:36:36;;;;;;;;;;;7.50;99.90;;;;;;5003321;28;20029;-75
2023/01/30 06:39:02;;;;;;;;;;;7.40;99.90;;;;;;5002661;28;19945;-76
2023/01/30 06:41:27;;;;;;;;;;;7.40;99.90;;;;;;5004389;28;20587;-73
2023/01/30 06:43:54;;;;;;;;;;;7.40;99.90;;;;;;5020555;28;19909;-76
2023/01/30 06:46:20;;;;;;;;;;;7.40;99.90;;;;;;5005099;28;20501;-75
2023/01/30 06:48:45;;;;;;;;;;;7.30;99.90;;;;;;5019662;28;20559;-76
2023/01/30 06:51:11;;;;;;;;;;;7.30;99.90;;;;;;5025579;28;19956;-78
2023/01/30 06:53:36;;;;;;;;;;;7.30;99.90;;;;;;5022496;28;19906;-76
2023/01/30 06:56:02;;;;;;;;;;;7.20;99.90;;;;;;5020238;28;20048;-76
2023/01/30 06:58:27;;;;;;;;;;;7.20;99.90;;;;;;5009258;28;19921;-75
2023/01/30 07:00:53;;;;;;;;;;;7.20;99.90;;;;;;5009245;28;20351;-75
2023/01/30 07:03:18;;;;;;;;;;;7.20;99.90;;;;;;5021638;28;19916;-80
2023/01/30 07:05:46;;;;;;;;;;;7.20;99.90;;;;;;5013028;28;19921;-76
2023/01/30 07:08:12;;;;;;;;;;;7.20;99.90;;;;;;5000126;28;19921;-79
2023/01/30 07:10:37;;;;;;;;;;;7.30;99.90;;;;;;5010637;28;20016;-76
2023/01/30 07:13:03;;;;;;;;;;;7.30;99.90;;;;;;5012795;28;19963;-77
2023/01/30 07:15:31;;;;;;;;;;;7.30;99.90;;;;;;5002225;28;20372;-80
2023/01/30 07:17:56;;;;;;;;;;;7.30;99.90;;;;;;5017012;28;20016;-81
2023/01/30 07:20:22;;;;;;;;;;;7.20;99.90;;;;;;5011174;28;19996;-79
2023/01/30 07:22:48;;;;;;;;;;;7.20;99.90;;;;;;4997759;28;19921;-77
2023/01/30 07:25:13;;;;;;;;;;;7.20;99.90;;;;;;5003144;28;20590;-78
2023/01/30 07:27:40;;;;;;;;;;;7.20;99.90;;;;;;5014182;28;19915;-81
2023/01/30 07:30:05;;;;;;;;;;;7.20;99.90;;;;;;5012148;28;19920;-75
2023/01/30 07:32:31;;;;;;;;;;;7.20;99.90;;;;;;5007121;28;19910;-77
2023/01/30 07:34:56;;;;;;;;;;;7.10;99.90;;;;;;5006020;28;20087;-74
2023/01/30 07:37:22;;;;;;;;;;;7.10;99.90;;;;;;5000129;28;19913;-78
2023/01/30 07:39:47;;;;;;;;;;;7.00;99.90;;;;;;5007371;28;19918;-77
2023/01/30 07:42:13;;;;;;;;;;;7.10;99.90;;;;;;5000024;28;19968;-76
2023/01/30 07:44:38;;;;;;;;;;;7.10;99.90;;;;;;5009713;28;19996;-76
2023/01/30 07:47:04;;;;;;;;;;;7.00;99.90;;;;;;5010586;28;20105;-77
2023/01/30 07:49:29;;;;;;;;;;;7.00;99.90;;;;;;5017974;28;19976;-74
2023/01/30 07:51:55;;;;;;;;;;;7.10;99.90;;;;;;5016710;28;19913;-75
2023/01/30 07:54:20;;;;;;;;;;;7.10;99.90;;;;;;5009712;28;19910;-73
2023/01/30 07:56:46;;;;;;;;;;;7.10;99.90;;;;;;5011251;28;19916;-75
2023/01/30 07:59:11;;;;;;;;;;;7.10;99.90;;;;;;5016413;28;19909;-77
2023/01/30 08:01:37;;;;;;;;;;;7.10;99.90;;;;;;5009815;28;20616;-77
2023/01/30 08:04:02;;;;;;;;;;;7.10;99.90;;;;;;5009779;28;20004;-74
2023/01/30 08:06:28;;;;;;;;;;;7.20;99.90;;;;;;5008437;28;19914;-79
2023/01/30 08:08:53;;;;;;;;;;;7.20;99.90;;;;;;5017269;28;19913;-79
2023/01/30 08:11:19;;;;;;;;;;;7.10;99.90;;;;;;5008861;28;20429;-77
2023/01/30 08:13:45;;;;;;;;;;;7.20;99.90;;;;;;5014202;28;19910;-77
2023/01/30 08:16:11;;;;;;;;;;;7.20;99.90;;;;;;5012613;28;19917;-75
2023/01/30 08:18:36;;;;;;;;;;;7.20;99.90;;;;;;5017073;28;19921;-75
2023/01/30 08:21:04;;;;;;;;;;;7.10;99.90;;;;;;5012530;28;19916;-73
2023/01/30 08:23:30;;;;;;;;;;;7.30;99.90;;;;;;5016719;28;19910;-73
2023/01/30 08:25:56;;;;;;;;;;;7.30;99.90;;;;;;5010588;28;19909;-74
2023/01/30 08:28:22;;;;;;;;;;;7.20;99.90;;;;;;5013135;28;20371;-82
2023/01/30 08:30:48;;;;;;;;;;;7.20;99.90;;;;;;5022397;28;19924;-73
2023/01/30 08:33:14;;;;;;;;;;;7.30;99.90;;;;;;5015235;28;19909;-80
2023/01/30 08:35:40;;;;;;;;;;;7.30;99.90;;;;;;5020853;28;19920;-76
2023/01/30 08:38:07;;;;;;;;;;;7.40;99.90;;;;;;5009177;28;19910;-74
2023/01/30 08:40:33;;;;;;;;;;;7.40;99.90;;;;;;5006772;28;19913;-76
2023/01/30 08:42:59;;;;;;;;;;;7.50;99.90;;;;;;5010773;28;20440;-72
2023/01/30 08:45:24;;;;;;;;;;;7.50;99.90;;;;;;5004966;28;19910;-73
2023/01/30 08:47:50;;;;;;;;;;;7.50;99.90;;;;;;5005905;28;19910;-76
2023/01/30 08:50:15;;;;;;;;;;;7.50;99.90;;;;;;5011165;28;19996;-75
2023/01/30 08:52:41;;;;;;;;;;;7.50;99.90;;;;;;5001525;28;19913;-77
2023/01/30 08:55:06;;;;;;;;;;;7.50;99.90;;;;;;5004777;28;19909;-76
2023/01/30 08:57:32;;;;;;;;;;;7.50;99.90;;;;;;5004589;28;19914;-76
2023/01/30 08:59:57;;;;;;;;;;;7.50;99.90;;;;;;5008450;28;19917;-73
2023/01/30 09:02:23;;;;;;;;;;;7.50;99.90;;;;;;5001990;28;20402;-75
2023/01/30 09:04:48;;;;;;;;;;;7.60;99.90;;;;;;4999970;28;19974;-79
2023/01/30 09:07:14;;;;;;;;;;;7.60;99.90;;;;;;4999636;28;20036;-81
2023/01/30 09:09:39;;;;;;;;;;;7.60;99.90;;;;;;5004726;28;19914;-77
2023/01/30 09:12:05;;;;;;;;;;;7.60;99.90;;;;;;5003077;28;19937;-78
2023/01/30 09:14:30;;;;;;;;;;;7.70;99.90;;;;;;5001214;28;19917;-75
2023/01/30 09:16:56;;;;;;;;;;;7.80;99.90;;;;;;5001150;28;19913;-76
2023/01/30 09:19:22;;;;;;;;;;;7.80;99.90;;;;;;5001622;28;19921;-76
2023/01/30 09:21:48;;;;;;;;;;;7.80;99.90;;;;;;5007096;28;20004;-76
2023/01/30 09:24:14;;;;;;;;;;;7.80;99.90;;;;;;4998752;28;20817;-78
2023/01/30 09:26:43;;;;;;;;;;;7.90;99.90;;;;;;4999118;28;19945;-75
2023/01/30 09:29:09;;;;;;;;;;;7.90;99.90;;;;;;5000259;28;19920;-74
2023/01/30 09:31:35;;;;;;;;;;;7.90;99.90;;;;;;4996967;28;19926;-76
2023/01/30 09:34:00;;;;;;;;;;;7.90;99.90;;;;;;4999579;28;20004;-74
2023/01/30 09:36:26;;;;;;;;;;;7.90;99.90;;;;;;5021706;28;19944;-71
2023/01/30 09:38:51;;;;;;;;;;;7.80;99.90;;;;;;5004798;28;19951;-71
2023/01/30 09:41:30;;;;;;;;;;;7.80;99.90;;;;;;5002988;28;19964;-72
2023/01/30 09:44:02;;;;;;;;;;;7.80;99.90;;;;;;5006272;28;19921;-71
2023/01/30 09:46:30;;;;;;;;;;;7.80;99.90;;;;;;4999330;28;20433;-72
2023/01/30 09:48:58;;;;;;;;;;;7.80;99.90;;;;;;4992767;28;20312;-74
2023/01/30 09:51:33;;;;;;;;;;;7.90;99.90;;;;;;4995803;28;20247;-71
2023/01/30 09:54:14;;;;;;;;;;;7.90;99.90;;;;;;4988071;28;19916;-72
2023/01/30 09:56:39;;;;;;;;;;;7.90;99.90;;;;;;5002630;28;19910;-73
2023/01/30 09:59:05;;;;;;;;;;;7.90;99.90;;;;;;5006109;28;19916;-71
2023/01/30 10:01:34;;;;;;;;;;;7.90;99.90;;;;;;5006186;28;20476;-72
2023/01/30 10:04:23;;;;;;;;;;;7.90;99.90;;;;;;5008575;28;20409;-72
2023/01/30 10:07:01;;;;;;;;;;;7.90;99.90;;;;;;5003975;28;19921;-71
2023/01/30 10:09:38;;;;;;;;;;;8.00;99.90;;;;;;5010663;28;19920;-71
2023/01/30 10:12:17;;;;;;;;;;;8.00;99.90;;;;;;5006796;28;19956;-71
2023/01/30 10:15:08;;;;;;;;;;;8.00;99.90;;;;;;5018540;28;20573;-71
2023/01/30 10:17:36;;;;;;;;;;;8.00;99.90;;;;;;5019768;28;19910;-71
2023/01/30 10:20:02;;;;;;;;;;;8.00;99.90;;;;;;5008795;28;19914;-71
2023/01/30 10:22:31;;;;;;;;;;;8.00;99.90;;;;;;5010973;28;19940;-70
2023/01/30 10:25:12;;;;;;;;;;;8.00;99.90;;;;;;5022462;28;19958;-73
2023/01/30 10:27:40;;;;;;;;;;;8.00;99.90;;;;;;5006428;28;19919;-73
2023/01/30 10:30:06;;;;;;;;;;;8.00;99.90;;;;;;5014330;28;19924;-72
2023/01/30 10:32:40;;;;;;;;;;;8.00;99.90;;;;;;5004887;28;19931;-72
2023/01/30 10:35:11;;;;;;;;;;;8.00;99.90;;;;;;4997022;28;19910;-72
2023/01/30 10:37:56;;;;;;;;;;;8.00;99.90;;;;;;5002003;28;20004;-71
2023/01/30 10:40:31;;;;;;;;;;;8.00;99.90;;;;;;4992163;28;20340;-72
2023/01/30 10:43:02;;;;;;;;;;;8.10;99.90;;;;;;4999045;28;19975;-73
2023/01/30 10:45:36;;;;;;;;;;;8.10;99.90;;;;;;5009274;28;20390;-71
2023/01/30 10:48:22;;;;;;;;;;;8.10;99.90;;;;;;4998052;28;19997;-71
2023/01/30 10:51:03;;;;;;;;;;;8.10;99.90;;;;;;5009644;28;19917;-71
2023/01/30 10:54:04;;;;;;;;;;;8.10;99.90;;;;;;5010759;28;19971;-72
2023/01/30 10:56:35;;;;;;;;;;;8.10;99.90;;;;;;4961847;28;19915;-75
2023/01/30 10:59:04;;;;;;;;;;;8.10;99.90;;;;;;4999958;28;20298;-76
2023/01/30 11:01:38;;;;;;;;;;;8.20;99.90;;;;;;5000953;28;19913;-80
2023/01/30 11:04:13;;;;;;;;;;;8.20;99.90;;;;;;5005633;28;19918;-76
2023/01/30 11:06:38;;;;;;;;;;;8.20;99.90;;;;;;5010835;28;20449;-76
2023/01/30 11:09:04;;;;;;;;;;;8.20;99.90;;;;;;5008552;28;19928;-80
2023/01/30 11:11:34;;;;;;;;;;;8.20;99.90;;;;;;5024584;28;19996;-79
2023/01/30 11:14:00;;;;;;;;;;;8.30;99.90;;;;;;5022784;28;19993;-74
2023/01/30 11:16:26;;;;;;;;;;;8.20;99.90;;;;;;5024150;28;19909;-76
2023/01/30 11:18:52;;;;;;;;;;;8.20;99.90;;;;;;5021615;28;19916;-72
2023/01/30 11:21:21;;;;;;;;;;;8.20;99.90;;;;;;5020706;28;19914;-74
2023/01/30 11:23:47;;;;;;;;;;;8.10;99.90;;;;;;5030795;28;19918;-76
2023/01/30 11:26:32;;;;;;;;;;;8.20;99.90;;;;;;5019142;28;19934;-76
2023/01/30 11:28:58;;;;;;;;;;;8.10;99.90;;;;;;5015374;28;19929;-73
2023/01/30 11:31:28;;;;;;;;;;;8.10;99.90;;;;;;5013392;28;19910;-76
2023/01/30 11:33:58;;;;;;;;;;;8.10;99.90;;;;;;5005645;28;19920;-76
2023/01/30 11:36:26;;;;;;;;;;;8.10;99.90;;;;;;5022475;28;19933;-77
2023/01/30 11:38:57;;;;;;;;;;;8.10;99.90;;;;;;5021709;28;19910;-75
2023/01/30 11:41:23;;;;;;;;;;;8.10;99.90;;;;;;5009614;28;19909;-75
2023/01/30 11:43:48;;;;;;;;;;;8.10;99.90;;;;;;5011626;28;19932;-76
2023/01/30 11:46:18;;;;;;;;;;;8.20;99.90;;;;;;5002331;28;19956;-75
2023/01/30 11:48:53;;;;;;;;;;;8.20;99.90;;;;;;5000748;28;20008;-74
2023/01/30 11:51:19;;;;;;;;;;;8.10;99.90;;;;;;5017035;28;19913;-78
2023/01/30 11:54:08;;;;;;;;;;;8.20;99.90;;;;;;5015843;28;19956;-76
2023/01/30 11:56:35;;;;;;;;;;;8.20;99.90;;;;;;5009142;28;19925;-78
2023/01/30 11:59:02;;;;;;;;;;;8.20;99.90;;;;;;5013964;28;20157;-79
2023/01/30 12:01:30;;;;;;;;;;;8.20;99.90;;;;;;5018261;28;19909;-76
2023/01/30 12:03:56;;;;;;;;;;;8.20;99.90;;;;;;5016909;28;19967;-74
2023/01/30 12:06:23;;;;;;;;;;;8.30;99.90;;;;;;5014191;28;19945;-75
2023/01/30 12:08:51;;;;;;;;;;;8.40;99.90;;;;;;5010082;28;20705;-76
2023/01/30 12:11:23;;;;;;;;;;;8.60;99.90;;;;;;5015279;28;20585;-74
2023/01/30 12:13:49;;;;;;;;;;;8.40;99.90;;;;;;5008329;28;20538;-78
2023/01/30 12:16:18;;;;;;;;;;;8.30;99.90;;;;;;5013513;28;19913;-76
2023/01/30 12:18:49;;;;;;;;;;;8.40;99.90;;;;;;5006881;28;19921;-76
2023/01/30 12:21:26;;;;;;;;;;;8.40;99.90;;;;;;5005786;28;19971;-73
2023/01/30 12:23:59;;;;;;;;;;;8.50;99.90;;;;;;5007648;28;19909;-76
2023/01/30 12:26:31;;;;;;;;;;;8.50;99.90;;;;;;5015881;28;19909;-80
2023/01/30 12:29:03;;;;;;;;;;;8.40;99.90;;;;;;5012087;28;19949;-80
2023/01/30 12:31:47;;;;;;;;;;;8.40;99.90;;;;;;5007747;28;19953;-81
2023/01/30 12:34:13;;;;;;;;;;;8.40;99.90;;;;;;5009357;28;19910;-75
2023/01/30 12:36:46;;;;;;;;;;;8.30;99.90;;;;;;5000277;28;20532;-73
2023/01/30 12:39:12;;;;;;;;;;;8.30;99.90;;;;;;5003870;28;20006;-77
2023/01/30 12:41:47;;;;;;;;;;;8.30;99.90;;;;;;5006368;28;19964;-76
2023/01/30 12:44:23;;;;;;;;;;;8.30;99.90;;;;;;5015166;28;19913;-74
2023/01/30 12:47:03;;;;;;;;;;;8.30;99.90;;;;;;5002421;28;20139;-74
2023/01/30 12:49:31;;;;;;;;;;;8.40;99.90;;;;;;5004577;28;19928;-76
2023/01/30 12:52:12;;;;;;;;;;;8.30;99.90;;;;;;5016022;28;19909;-75
2023/01/30 12:54:49;;;;;;;;;;;8.40;99.90;;;;;;4998765;28;19994;-73
2023/01/30 12:57:17;;;;;;;;;;;8.30;99.90;;;;;;5001998;28;19964;-76
2023/01/30 12:59:57;;;;;;;;;;;8.40;99.90;;;;;;5003157;28;19953;-76
2023/01/30 13:02:43;;;;;;;;;;;8.40;99.90;;;;;;4997139;28;19981;-76
2023/01/30 13:05:20;;;;;;;;;;;8.50;99.90;;;;;;5006764;28;19920;-77
2023/01/30 13:07:51;;;;;;;;;;;8.60;99.90;;;;;;5004774;28;19925;-77
2023/01/30 13:10:17;;;;;;;;;;;8.50;99.90;;;;;;5013691;28;19917;-75
2023/01/30 13:13:03;;;;;;;;;;;8.50;99.90;;;;;;5008894;28;19909;-74
2023/01/30 13:15:47;;;;;;;;;;;8.40;99.90;;;;;;5008057;28;19937;-77
2023/01/30 13:18:20;;;;;;;;;;;8.50;99.90;;;;;;5008271;28;20346;-77
2023/01/30 13:20:50;;;;;;;;;;;8.40;99.90;;;;;;5019087;28;19909;-73
2023/01/30 13:23:17;;;;;;;;;;;8.50;99.90;;;;;;5003213;28;19922;-78
2023/01/30 13:25:48;;;;;;;;;;;8.50;99.90;;;;;;5004408;28;19921;-74
2023/01/30 13:28:19;;;;;;;;;;;8.50;99.90;;;;;;5014227;28;19913;-74
2023/01/30 13:30:47;;;;;;;;;;;8.50;99.90;;;;;;5007632;28;19910;-72
2023/01/30 13:33:17;;;;;;;;;;;8.50;99.90;;;;;;4995594;28;19910;-75
2023/01/30 13:35:45;;;;;;;;;;;8.50;99.90;;;;;;5008744;28;20367;-73
2023/01/30 13:38:15;;;;;;;;;;;8.50;99.90;;;;;;5018025;28;19970;-75
2023/01/30 13:40:41;;;;;;;;;;;8.50;99.90;;;;;;5009398;28;19953;-77
2023/01/30 13:43:08;;;;;;;;;;;8.40;99.90;;;;;;5023507;28;19956;-77
2023/01/30 13:45:36;;;;;;;;;;;8.40;99.90;;;;;;5019687;28;19910;-76
2023/01/30 13:48:20;;;;;;;;;;;8.40;99.90;;;;;;5024602;28;19960;-74
2023/01/30 13:50:54;;;;;;;;;;;8.40;99.90;;;;;;5013586;28;19917;-77
2023/01/30 13:53:38;;;;;;;;;;;8.40;99.90;;;;;;5010690;28;19960;-76
2023/01/30 13:56:14;;;;;;;;;;;8.40;99.90;;;;;;5007321;28;19913;-74
2023/01/30 13:58:53;;;;;;;;;;;8.40;99.90;;;;;;5013859;28;19920;-77
2023/01/30 14:01:20;;;;;;;;;;;8.30;99.90;;;;;;5004333;28;19925;-75
2023/01/30 14:03:46;;;;;;;;;;;8.30;99.90;;;;;;5014206;28;19989;-79
2023/01/30 14:06:13;;;;;;;;;;;8.30;99.90;;;;;;5012807;28;19944;-77
2023/01/30 14:08:41;;;;;;;;;;;8.30;99.90;;;;;;5009562;28;19926;-74
2023/01/30 14:11:27;;;;;;;;;;;8.30;99.90;;;;;;5004199;28;19910;-76
2023/01/30 14:13:55;;;;;;;;;;;8.30;99.90;;;;;;5015826;28;19914;-75
2023/01/30 14:16:20;;;;;;;;;;;8.40;99.90;;;;;;5022182;28;19948;-74
2023/01/30 14:18:46;;;;;;;;;;;8.40;99.90;;;;;;5012471;28;19914;-73
2023/01/30 14:21:16;;;;;;;;;;;8.40;99.90;;;;;;4999173;28;20287;-75
2023/01/30 14:23:53;;;;;;;;;;;8.40;99.90;;;;;;5006613;28;19924;-73
2023/01/30 14:26:37;;;;;;;;;;;8.40;99.90;;;;;;4995351;28;20641;-73
2023/01/30 14:29:03;;;;;;;;;;;8.30;99.90;;;;;;5014516;28;19945;-75
2023/01/30 14:31:45;;;;;;;;;;;8.30;99.90;;;;;;5003766;28;19913;-73
2023/01/30 14:34:31;;;;;;;;;;;8.30;99.90;;;;;;4998474;28;20602;-75
2023/01/30 14:36:56;;;;;;;;;;;8.30;99.90;;;;;;5004847;28;19910;-73
2023/01/30 14:39:37;;;;;;;;;;;8.30;99.90;;;;;;5003183;28;19979;-76
2023/01/30 14:42:23;;;;;;;;;;;8.30;99.90;;;;;;5002144;28;19921;-74
2023/01/30 14:44:55;;;;;;;;;;;8.30;99.90;;;;;;4997535;28;20688;-76